sensor_id;sensor_type;location;lat;lon;timestamp;P1;durP1;ratioP1;P2;durP2;ratioP2
61640;SDS011;62201;49.966;8.342;2024-01-06T00:01:35;9.57;;;2.90;;
61640;SDS011;62201;49.966;8.342;2024-01-06T00:04:00;6.47;;;2.30;;
61640;SDS011;62201;49.966;8.342;2024-01-06T00:06:26;8.90;;;2.40;;
61640;SDS011;62201;49.966;8.342;2024-01-06T00:08:51;9.07;;;3.03;;
61640;SDS011;62201;49.966;8.342;2024-01-06T00:11:19;8.23;;;2.37;;
61640;SDS011;62201;49.966;8.342;2024-01-06T00:13:45;5.63;;;2.30;;
61640;SDS011;62201;49.966;8.342;2024-01-06T00:16:11;10.07;;;2.90;;
61640;SDS011;62201;49.966;8.342;2024-01-06T00:18:36;7.23;;;2.77;;
61640;SDS011;62201;49.966;8.342;2024-01-06T00:21:01;8.30;;;2.60;;
61640;SDS011;62201;49.966;8.342;2024-01-06T00:23:27;10.70;;;2.80;;
61640;SDS011;62201;49.966;8.342;2024-01-06T00:25:52;9.30;;;2.80;;
61640;SDS011;62201;49.966;8.342;2024-01-06T00:28:18;14.20;;;2.63;;
61640;SDS011;62201;49.966;8.342;2024-01-06T00:30:43;7.50;;;3.10;;
61640;SDS011;62201;49.966;8.342;2024-01-06T00:33:08;7.17;;;2.70;;
61640;SDS011;62201;49.966;8.342;2024-01-06T00:35:34;8.43;;;2.70;;
61640;SDS011;62201;49.966;8.342;2024-01-06T00:37:59;9.13;;;3.10;;
61640;SDS011;62201;49.966;8.342;2024-01-06T00:40:25;8.43;;;2.43;;
61640;SDS011;62201;49.966;8.342;2024-01-06T00:42:50;10.40;;;2.80;;
61640;SDS011;62201;49.966;8.342;2024-01-06T00:45:16;9.07;;;3.00;;
61640;SDS011;62201;49.966;8.342;2024-01-06T00:47:41;11.47;;;2.57;;
61640;SDS011;62201;49.966;8.342;2024-01-06T00:50:07;5.67;;;2.37;;
61640;SDS011;62201;49.966;8.342;2024-01-06T00:52:33;6.80;;;2.47;;
61640;SDS011;62201;49.966;8.342;2024-01-06T00:54:58;8.50;;;2.17;;
61640;SDS011;62201;49.966;8.342;2024-01-06T00:57:23;8.13;;;2.30;;
61640;SDS011;62201;49.966;8.342;2024-01-06T00:59:49;9.93;;;2.00;;
61640;SDS011;62201;49.966;8.342;2024-01-06T01:02:15;5.23;;;2.10;;
61640;SDS011;62201;49.966;8.342;2024-01-06T01:04:41;6.77;;;2.00;;
61640;SDS011;62201;49.966;8.342;2024-01-06T01:07:06;10.40;;;2.23;;
61640;SDS011;62201;49.966;8.342;2024-01-06T01:09:31;5.40;;;1.60;;
61640;SDS011;62201;49.966;8.342;2024-01-06T01:11:57;7.80;;;2.10;;
61640;SDS011;62201;49.966;8.342;2024-01-06T01:14:22;8.47;;;1.93;;
61640;SDS011;62201;49.966;8.342;2024-01-06T01:16:48;11.67;;;2.20;;
61640;SDS011;62201;49.966;8.342;2024-01-06T01:19:13;8.97;;;1.87;;
61640;SDS011;62201;49.966;8.342;2024-01-06T01:21:39;5.73;;;1.67;;
61640;SDS011;62201;49.966;8.342;2024-01-06T01:24:04;8.40;;;1.60;;
61640;SDS011;62201;49.966;8.342;2024-01-06T01:26:30;10.53;;;2.00;;
61640;SDS011;62201;49.966;8.342;2024-01-06T01:28:55;8.27;;;2.03;;
61640;SDS011;62201;49.966;8.342;2024-01-06T01:31:20;9.00;;;2.13;;
61640;SDS011;62201;49.966;8.342;2024-01-06T01:33:46;7.33;;;1.83;;
61640;SDS011;62201;49.966;8.342;2024-01-06T01:36:12;8.87;;;2.40;;
61640;SDS011;62201;49.966;8.342;2024-01-06T01:38:37;6.47;;;2.17;;
61640;SDS011;62201;49.966;8.342;2024-01-06T01:41:03;9.87;;;2.20;;
61640;SDS011;62201;49.966;8.342;2024-01-06T01:43:28;8.87;;;2.27;;
61640;SDS011;62201;49.966;8.342;2024-01-06T01:45:54;8.97;;;2.30;;
61640;SDS011;62201;49.966;8.342;2024-01-06T01:48:22;8.27;;;2.20;;
61640;SDS011;62201;49.966;8.342;2024-01-06T01:50:48;7.93;;;1.80;;
61640;SDS011;62201;49.966;8.342;2024-01-06T01:53:14;8.50;;;1.97;;
61640;SDS011;62201;49.966;8.342;2024-01-06T01:55:40;11.37;;;1.90;;
61640;SDS011;62201;49.966;8.342;2024-01-06T01:58:07;8.27;;;1.93;;
61640;SDS011;62201;49.966;8.342;2024-01-06T02:00:34;7.43;;;2.17;;
61640;SDS011;62201;49.966;8.342;2024-01-06T02:02:59;7.43;;;2.30;;
61640;SDS011;62201;49.966;8.342;2024-01-06T02:05:26;6.97;;;1.70;;
61640;SDS011;62201;49.966;8.342;2024-01-06T02:07:51;8.77;;;2.13;;
61640;SDS011;62201;49.966;8.342;2024-01-06T02:10:17;8.00;;;1.80;;
61640;SDS011;62201;49.966;8.342;2024-01-06T02:12:43;7.90;;;1.90;;
61640;SDS011;62201;49.966;8.342;2024-01-06T02:15:08;9.33;;;2.10;;
61640;SDS011;62201;49.966;8.342;2024-01-06T02:17:34;7.50;;;2.20;;
61640;SDS011;62201;49.966;8.342;2024-01-06T02:19:59;7.27;;;1.80;;
61640;SDS011;62201;49.966;8.342;2024-01-06T02:22:24;6.20;;;1.70;;
61640;SDS011;62201;49.966;8.342;2024-01-06T02:24:50;4.77;;;1.77;;
61640;SDS011;62201;49.966;8.342;2024-01-06T02:27:15;6.53;;;1.67;;
61640;SDS011;62201;49.966;8.342;2024-01-06T02:29:40;9.03;;;2.13;;
61640;SDS011;62201;49.966;8.342;2024-01-06T02:32:06;9.17;;;2.33;;
61640;SDS011;62201;49.966;8.342;2024-01-06T02:34:31;6.43;;;1.93;;
61640;SDS011;62201;49.966;8.342;2024-01-06T02:36:57;7.20;;;2.07;;
61640;SDS011;62201;49.966;8.342;2024-01-06T02:39:23;9.53;;;2.40;;
61640;SDS011;62201;49.966;8.342;2024-01-06T02:41:48;13.23;;;2.50;;
61640;SDS011;62201;49.966;8.342;2024-01-06T02:44:14;12.00;;;2.70;;
61640;SDS011;62201;49.966;8.342;2024-01-06T02:46:39;7.63;;;1.80;;
61640;SDS011;62201;49.966;8.342;2024-01-06T02:49:05;8.80;;;1.77;;
61640;SDS011;62201;49.966;8.342;2024-01-06T02:51:30;6.30;;;2.10;;
61640;SDS011;62201;49.966;8.342;2024-01-06T02:53:56;7.43;;;1.70;;
61640;SDS011;62201;49.966;8.342;2024-01-06T02:56:21;5.93;;;1.80;;
61640;SDS011;62201;49.966;8.342;2024-01-06T02:58:47;7.37;;;1.70;;
61640;SDS011;62201;49.966;8.342;2024-01-06T03:01:12;5.43;;;1.30;;
61640;SDS011;62201;49.966;8.342;2024-01-06T03:03:37;7.37;;;1.60;;
61640;SDS011;62201;49.966;8.342;2024-01-06T03:06:03;6.33;;;2.00;;
61640;SDS011;62201;49.966;8.342;2024-01-06T03:08:28;6.47;;;1.70;;
61640;SDS011;62201;49.966;8.342;2024-01-06T03:10:54;7.50;;;1.90;;
61640;SDS011;62201;49.966;8.342;2024-01-06T03:13:19;6.20;;;1.63;;
61640;SDS011;62201;49.966;8.342;2024-01-06T03:15:45;5.93;;;1.80;;
61640;SDS011;62201;49.966;8.342;2024-01-06T03:18:10;5.90;;;1.97;;
61640;SDS011;62201;49.966;8.342;2024-01-06T03:20:36;8.70;;;1.83;;
61640;SDS011;62201;49.966;8.342;2024-01-06T03:23:01;7.77;;;1.50;;
61640;SDS011;62201;49.966;8.342;2024-01-06T03:25:27;6.00;;;1.67;;
61640;SDS011;62201;49.966;8.342;2024-01-06T03:27:52;5.47;;;1.60;;
61640;SDS011;62201;49.966;8.342;2024-01-06T03:30:17;4.47;;;1.40;;
61640;SDS011;62201;49.966;8.342;2024-01-06T03:32:43;7.00;;;1.83;;
61640;SDS011;62201;49.966;8.342;2024-01-06T03:35:08;6.67;;;1.70;;
61640;SDS011;62201;49.966;8.342;2024-01-06T03:37:33;7.57;;;1.80;;
61640;SDS011;62201;49.966;8.342;2024-01-06T03:39:59;6.10;;;2.00;;
61640;SDS011;62201;49.966;8.342;2024-01-06T03:42:24;6.37;;;2.00;;
61640;SDS011;62201;49.966;8.342;2024-01-06T03:44:50;6.47;;;2.70;;
61640;SDS011;62201;49.966;8.342;2024-01-06T03:47:15;7.17;;;2.27;;
61640;SDS011;62201;49.966;8.342;2024-01-06T03:49:40;10.63;;;2.67;;
61640;SDS011;62201;49.966;8.342;2024-01-06T03:52:06;8.97;;;2.23;;
61640;SDS011;62201;49.966;8.342;2024-01-06T03:54:31;8.73;;;3.13;;
61640;SDS011;62201;49.966;8.342;2024-01-06T03:56:56;11.77;;;3.07;;
61640;SDS011;62201;49.966;8.342;2024-01-06T03:59:22;12.43;;;3.33;;
61640;SDS011;62201;49.966;8.342;2024-01-06T04:01:47;13.43;;;3.43;;
61640;SDS011;62201;49.966;8.342;2024-01-06T04:04:13;8.73;;;2.97;;
61640;SDS011;62201;49.966;8.342;2024-01-06T04:06:38;11.30;;;3.17;;
61640;SDS011;62201;49.966;8.342;2024-01-06T04:09:04;5.83;;;2.70;;
61640;SDS011;62201;49.966;8.342;2024-01-06T04:11:30;7.80;;;2.30;;
61640;SDS011;62201;49.966;8.342;2024-01-06T04:13:55;6.03;;;2.77;;
61640;SDS011;62201;49.966;8.342;2024-01-06T04:16:21;8.70;;;2.63;;
61640;SDS011;62201;49.966;8.342;2024-01-06T04:18:46;6.93;;;2.83;;
61640;SDS011;62201;49.966;8.342;2024-01-06T04:21:11;14.13;;;3.43;;
61640;SDS011;62201;49.966;8.342;2024-01-06T04:23:37;8.83;;;2.60;;
61640;SDS011;62201;49.966;8.342;2024-01-06T04:26:02;8.90;;;3.13;;
61640;SDS011;62201;49.966;8.342;2024-01-06T04:28:29;8.40;;;2.90;;
61640;SDS011;62201;49.966;8.342;2024-01-06T04:30:55;11.07;;;3.23;;
61640;SDS011;62201;49.966;8.342;2024-01-06T04:33:21;9.47;;;3.50;;
61640;SDS011;62201;49.966;8.342;2024-01-06T04:35:46;7.50;;;2.67;;
61640;SDS011;62201;49.966;8.342;2024-01-06T04:38:11;9.70;;;3.20;;
61640;SDS011;62201;49.966;8.342;2024-01-06T04:40:37;10.13;;;3.10;;
61640;SDS011;62201;49.966;8.342;2024-01-06T04:43:02;8.00;;;2.40;;
61640;SDS011;62201;49.966;8.342;2024-01-06T04:45:28;6.97;;;2.30;;
61640;SDS011;62201;49.966;8.342;2024-01-06T04:47:54;7.93;;;2.17;;
61640;SDS011;62201;49.966;8.342;2024-01-06T04:50:19;8.37;;;2.00;;
61640;SDS011;62201;49.966;8.342;2024-01-06T04:52:44;11.97;;;2.60;;
61640;SDS011;62201;49.966;8.342;2024-01-06T04:55:10;9.43;;;2.50;;
61640;SDS011;62201;49.966;8.342;2024-01-06T04:57:36;10.63;;;2.77;;
61640;SDS011;62201;49.966;8.342;2024-01-06T05:00:01;8.47;;;2.57;;
61640;SDS011;62201;49.966;8.342;2024-01-06T05:02:28;8.63;;;2.50;;
61640;SDS011;62201;49.966;8.342;2024-01-06T05:04:53;8.87;;;2.30;;
61640;SDS011;62201;49.966;8.342;2024-01-06T05:07:19;7.90;;;2.00;;
61640;SDS011;62201;49.966;8.342;2024-01-06T05:09:44;6.40;;;2.30;;
61640;SDS011;62201;49.966;8.342;2024-01-06T05:12:09;11.13;;;2.87;;
61640;SDS011;62201;49.966;8.342;2024-01-06T05:14:35;4.83;;;2.10;;
61640;SDS011;62201;49.966;8.342;2024-01-06T05:17:00;9.50;;;2.23;;
61640;SDS011;62201;49.966;8.342;2024-01-06T05:19:25;8.77;;;2.47;;
61640;SDS011;62201;49.966;8.342;2024-01-06T05:21:51;5.73;;;1.93;;
61640;SDS011;62201;49.966;8.342;2024-01-06T05:24:17;6.13;;;2.00;;
61640;SDS011;62201;49.966;8.342;2024-01-06T05:26:44;5.57;;;1.73;;
61640;SDS011;62201;49.966;8.342;2024-01-06T05:29:09;5.97;;;1.47;;
61640;SDS011;62201;49.966;8.342;2024-01-06T05:31:35;9.27;;;2.70;;
61640;SDS011;62201;49.966;8.342;2024-01-06T05:34:00;8.20;;;1.90;;
61640;SDS011;62201;49.966;8.342;2024-01-06T05:36:25;7.50;;;1.47;;
61640;SDS011;62201;49.966;8.342;2024-01-06T05:38:51;7.10;;;1.70;;
61640;SDS011;62201;49.966;8.342;2024-01-06T05:41:16;4.00;;;1.70;;
61640;SDS011;62201;49.966;8.342;2024-01-06T05:43:42;9.20;;;2.10;;
61640;SDS011;62201;49.966;8.342;2024-01-06T05:46:07;5.53;;;1.43;;
61640;SDS011;62201;49.966;8.342;2024-01-06T05:48:33;3.63;;;1.67;;
61640;SDS011;62201;49.966;8.342;2024-01-06T05:50:58;6.43;;;3.00;;
61640;SDS011;62201;49.966;8.342;2024-01-06T05:53:23;9.20;;;2.40;;
61640;SDS011;62201;49.966;8.342;2024-01-06T05:55:49;6.23;;;2.53;;
61640;SDS011;62201;49.966;8.342;2024-01-06T05:58:15;5.70;;;3.00;;
61640;SDS011;62201;49.966;8.342;2024-01-06T06:00:41;5.73;;;2.00;;
61640;SDS011;62201;49.966;8.342;2024-01-06T06:03:06;5.83;;;1.73;;
61640;SDS011;62201;49.966;8.342;2024-01-06T06:05:32;6.77;;;1.77;;
61640;SDS011;62201;49.966;8.342;2024-01-06T06:07:58;3.33;;;1.80;;
61640;SDS011;62201;49.966;8.342;2024-01-06T06:10:23;4.87;;;1.70;;
61640;SDS011;62201;49.966;8.342;2024-01-06T06:12:54;5.40;;;1.60;;
61640;SDS011;62201;49.966;8.342;2024-01-06T06:15:20;5.17;;;2.00;;
61640;SDS011;62201;49.966;8.342;2024-01-06T06:17:45;7.03;;;1.70;;
61640;SDS011;62201;49.966;8.342;2024-01-06T06:20:11;6.30;;;1.77;;
61640;SDS011;62201;49.966;8.342;2024-01-06T06:22:36;6.90;;;2.00;;
61640;SDS011;62201;49.966;8.342;2024-01-06T06:25:02;5.97;;;1.70;;
61640;SDS011;62201;49.966;8.342;2024-01-06T06:27:28;4.67;;;2.00;;
61640;SDS011;62201;49.966;8.342;2024-01-06T06:29:54;5.80;;;1.70;;
61640;SDS011;62201;49.966;8.342;2024-01-06T06:32:21;4.60;;;1.60;;
61640;SDS011;62201;49.966;8.342;2024-01-06T06:34:46;5.93;;;1.73;;
61640;SDS011;62201;49.966;8.342;2024-01-06T06:37:12;6.63;;;1.50;;
61640;SDS011;62201;49.966;8.342;2024-01-06T06:39:37;5.07;;;1.87;;
61640;SDS011;62201;49.966;8.342;2024-01-06T06:42:03;5.77;;;1.67;;
61640;SDS011;62201;49.966;8.342;2024-01-06T06:44:29;5.73;;;1.67;;
61640;SDS011;62201;49.966;8.342;2024-01-06T06:46:54;4.37;;;1.60;;
61640;SDS011;62201;49.966;8.342;2024-01-06T06:49:20;6.57;;;1.70;;
61640;SDS011;62201;49.966;8.342;2024-01-06T06:51:45;8.80;;;1.80;;
61640;SDS011;62201;49.966;8.342;2024-01-06T06:54:13;4.33;;;1.50;;
61640;SDS011;62201;49.966;8.342;2024-01-06T06:56:39;10.00;;;2.00;;
61640;SDS011;62201;49.966;8.342;2024-01-06T06:59:05;4.87;;;1.53;;
61640;SDS011;62201;49.966;8.342;2024-01-06T07:01:30;4.27;;;1.60;;
61640;SDS011;62201;49.966;8.342;2024-01-06T07:03:56;6.27;;;1.60;;
61640;SDS011;62201;49.966;8.342;2024-01-06T07:06:21;4.80;;;1.83;;
61640;SDS011;62201;49.966;8.342;2024-01-06T07:08:46;5.20;;;1.87;;
61640;SDS011;62201;49.966;8.342;2024-01-06T07:11:12;6.07;;;1.60;;
61640;SDS011;62201;49.966;8.342;2024-01-06T07:13:40;6.50;;;1.80;;
61640;SDS011;62201;49.966;8.342;2024-01-06T07:16:05;5.80;;;1.70;;
61640;SDS011;62201;49.966;8.342;2024-01-06T07:18:31;8.97;;;2.00;;
61640;SDS011;62201;49.966;8.342;2024-01-06T07:20:56;6.30;;;1.97;;
61640;SDS011;62201;49.966;8.342;2024-01-06T07:23:22;5.43;;;2.37;;
61640;SDS011;62201;49.966;8.342;2024-01-06T07:25:47;6.30;;;1.97;;
61640;SDS011;62201;49.966;8.342;2024-01-06T07:28:14;5.33;;;1.50;;
61640;SDS011;62201;49.966;8.342;2024-01-06T07:30:39;4.80;;;2.17;;
61640;SDS011;62201;49.966;8.342;2024-01-06T07:33:04;6.67;;;2.30;;
61640;SDS011;62201;49.966;8.342;2024-01-06T07:35:30;7.53;;;2.10;;
61640;SDS011;62201;49.966;8.342;2024-01-06T07:37:55;4.70;;;1.77;;
61640;SDS011;62201;49.966;8.342;2024-01-06T07:40:20;5.23;;;1.93;;
61640;SDS011;62201;49.966;8.342;2024-01-06T07:42:48;6.17;;;2.03;;
61640;SDS011;62201;49.966;8.342;2024-01-06T07:45:13;7.83;;;2.27;;
61640;SDS011;62201;49.966;8.342;2024-01-06T07:47:39;5.97;;;2.10;;
61640;SDS011;62201;49.966;8.342;2024-01-06T07:50:04;5.30;;;1.97;;
61640;SDS011;62201;49.966;8.342;2024-01-06T07:52:30;3.70;;;1.77;;
61640;SDS011;62201;49.966;8.342;2024-01-06T07:54:56;6.33;;;1.90;;
61640;SDS011;62201;49.966;8.342;2024-01-06T07:57:21;10.57;;;2.20;;
61640;SDS011;62201;49.966;8.342;2024-01-06T07:59:46;5.23;;;1.80;;
61640;SDS011;62201;49.966;8.342;2024-01-06T08:02:12;6.97;;;2.10;;
61640;SDS011;62201;49.966;8.342;2024-01-06T08:04:37;5.90;;;1.80;;
61640;SDS011;62201;49.966;8.342;2024-01-06T08:07:02;6.40;;;1.87;;
61640;SDS011;62201;49.966;8.342;2024-01-06T08:09:28;6.53;;;2.07;;
61640;SDS011;62201;49.966;8.342;2024-01-06T08:11:53;9.33;;;2.93;;
61640;SDS011;62201;49.966;8.342;2024-01-06T08:14:19;5.07;;;2.20;;
61640;SDS011;62201;49.966;8.342;2024-01-06T08:16:44;5.20;;;2.27;;
61640;SDS011;62201;49.966;8.342;2024-01-06T08:19:10;5.93;;;2.00;;
61640;SDS011;62201;49.966;8.342;2024-01-06T08:21:36;4.63;;;2.10;;
61640;SDS011;62201;49.966;8.342;2024-01-06T08:24:01;5.43;;;2.10;;
61640;SDS011;62201;49.966;8.342;2024-01-06T08:26:27;4.80;;;1.97;;
61640;SDS011;62201;49.966;8.342;2024-01-06T08:28:52;6.37;;;2.20;;
61640;SDS011;62201;49.966;8.342;2024-01-06T08:31:18;8.13;;;2.57;;
61640;SDS011;62201;49.966;8.342;2024-01-06T08:33:43;5.17;;;2.20;;
61640;SDS011;62201;49.966;8.342;2024-01-06T08:36:08;6.50;;;3.13;;
61640;SDS011;62201;49.966;8.342;2024-01-06T08:38:34;5.80;;;2.70;;
61640;SDS011;62201;49.966;8.342;2024-01-06T08:41:00;11.10;;;4.40;;
61640;SDS011;62201;49.966;8.342;2024-01-06T08:43:26;8.00;;;3.53;;
61640;SDS011;62201;49.966;8.342;2024-01-06T08:45:51;9.73;;;4.40;;
61640;SDS011;62201;49.966;8.342;2024-01-06T08:48:17;9.13;;;3.87;;
61640;SDS011;62201;49.966;8.342;2024-01-06T08:50:43;5.73;;;3.27;;
61640;SDS011;62201;49.966;8.342;2024-01-06T08:53:10;8.13;;;3.80;;
61640;SDS011;62201;49.966;8.342;2024-01-06T08:55:35;8.87;;;3.13;;
61640;SDS011;62201;49.966;8.342;2024-01-06T08:58:01;9.27;;;3.13;;
61640;SDS011;62201;49.966;8.342;2024-01-06T09:00:26;9.57;;;3.20;;
61640;SDS011;62201;49.966;8.342;2024-01-06T09:02:52;10.23;;;3.10;;
61640;SDS011;62201;49.966;8.342;2024-01-06T09:05:17;8.83;;;3.23;;
61640;SDS011;62201;49.966;8.342;2024-01-06T09:07:42;8.83;;;3.73;;
61640;SDS011;62201;49.966;8.342;2024-01-06T09:10:08;10.77;;;4.13;;
61640;SDS011;62201;49.966;8.342;2024-01-06T09:12:34;6.43;;;3.10;;
61640;SDS011;62201;49.966;8.342;2024-01-06T09:15:00;9.57;;;3.50;;
61640;SDS011;62201;49.966;8.342;2024-01-06T09:17:25;7.30;;;3.50;;
61640;SDS011;62201;49.966;8.342;2024-01-06T09:19:51;7.97;;;3.60;;
61640;SDS011;62201;49.966;8.342;2024-01-06T09:22:18;8.67;;;3.30;;
61640;SDS011;62201;49.966;8.342;2024-01-06T09:24:44;8.53;;;2.53;;
61640;SDS011;62201;49.966;8.342;2024-01-06T09:27:09;5.93;;;2.30;;
61640;SDS011;62201;49.966;8.342;2024-01-06T09:29:34;7.30;;;2.70;;
61640;SDS011;62201;49.966;8.342;2024-01-06T09:32:00;10.90;;;2.57;;
61640;SDS011;62201;49.966;8.342;2024-01-06T09:34:25;6.77;;;2.50;;
61640;SDS011;62201;49.966;8.342;2024-01-06T09:36:50;7.07;;;2.77;;
61640;SDS011;62201;49.966;8.342;2024-01-06T09:39:16;7.60;;;2.83;;
61640;SDS011;62201;49.966;8.342;2024-01-06T09:41:42;7.07;;;2.70;;
61640;SDS011;62201;49.966;8.342;2024-01-06T09:44:07;11.73;;;2.80;;
61640;SDS011;62201;49.966;8.342;2024-01-06T09:46:32;6.70;;;3.00;;
61640;SDS011;62201;49.966;8.342;2024-01-06T09:49:01;7.00;;;3.10;;
61640;SDS011;62201;49.966;8.342;2024-01-06T09:51:26;8.00;;;2.70;;
61640;SDS011;62201;49.966;8.342;2024-01-06T09:56:24;6.38;;;2.58;;
61640;SDS011;62201;49.966;8.342;2024-01-06T09:58:51;7.77;;;2.43;;
61640;SDS011;62201;49.966;8.342;2024-01-06T10:01:17;7.50;;;3.07;;
61640;SDS011;62201;49.966;8.342;2024-01-06T10:03:43;7.27;;;3.10;;
61640;SDS011;62201;49.966;8.342;2024-01-06T10:06:10;10.00;;;3.50;;
61640;SDS011;62201;49.966;8.342;2024-01-06T10:08:36;8.10;;;3.43;;
61640;SDS011;62201;49.966;8.342;2024-01-06T10:11:01;8.57;;;3.10;;
61640;SDS011;62201;49.966;8.342;2024-01-06T10:13:27;7.47;;;3.07;;
61640;SDS011;62201;49.966;8.342;2024-01-06T10:15:53;7.53;;;3.23;;
61640;SDS011;62201;49.966;8.342;2024-01-06T10:18:20;6.67;;;3.27;;
61640;SDS011;62201;49.966;8.342;2024-01-06T10:20:46;8.90;;;3.40;;
61640;SDS011;62201;49.966;8.342;2024-01-06T10:23:12;9.13;;;3.17;;
61640;SDS011;62201;49.966;8.342;2024-01-06T10:25:38;5.43;;;3.07;;
61640;SDS011;62201;49.966;8.342;2024-01-06T10:28:04;10.30;;;3.30;;
61640;SDS011;62201;49.966;8.342;2024-01-06T10:30:29;5.57;;;3.13;;
61640;SDS011;62201;49.966;8.342;2024-01-06T10:32:55;9.73;;;3.40;;
61640;SDS011;62201;49.966;8.342;2024-01-06T10:35:20;7.57;;;2.90;;
61640;SDS011;62201;49.966;8.342;2024-01-06T10:37:45;7.93;;;3.10;;
61640;SDS011;62201;49.966;8.342;2024-01-06T10:40:13;8.13;;;3.10;;
61640;SDS011;62201;49.966;8.342;2024-01-06T10:42:43;8.47;;;3.10;;
61640;SDS011;62201;49.966;8.342;2024-01-06T10:45:10;5.33;;;2.90;;
61640;SDS011;62201;49.966;8.342;2024-01-06T10:47:37;6.50;;;2.83;;
61640;SDS011;62201;49.966;8.342;2024-01-06T10:50:03;7.07;;;2.97;;
61640;SDS011;62201;49.966;8.342;2024-01-06T10:52:30;5.77;;;2.97;;
61640;SDS011;62201;49.966;8.342;2024-01-06T10:54:56;9.30;;;3.70;;
61640;SDS011;62201;49.966;8.342;2024-01-06T10:57:21;6.20;;;3.07;;
61640;SDS011;62201;49.966;8.342;2024-01-06T10:59:49;6.97;;;3.57;;
61640;SDS011;62201;49.966;8.342;2024-01-06T11:02:16;7.70;;;3.77;;
61640;SDS011;62201;49.966;8.342;2024-01-06T11:04:45;11.07;;;3.83;;
61640;SDS011;62201;49.966;8.342;2024-01-06T11:07:12;5.80;;;3.47;;
61640;SDS011;62201;49.966;8.342;2024-01-06T11:09:39;7.47;;;3.80;;
61640;SDS011;62201;49.966;8.342;2024-01-06T11:12:31;8.43;;;3.53;;
61640;SDS011;62201;49.966;8.342;2024-01-06T11:14:58;7.20;;;3.70;;
61640;SDS011;62201;49.966;8.342;2024-01-06T11:20:22;6.43;;;3.27;;
61640;SDS011;62201;49.966;8.342;2024-01-06T11:22:48;6.87;;;3.43;;
61640;SDS011;62201;49.966;8.342;2024-01-06T11:25:24;8.13;;;3.67;;
61640;SDS011;62201;49.966;8.342;2024-01-06T11:27:49;6.93;;;3.00;;
61640;SDS011;62201;49.966;8.342;2024-01-06T11:30:21;6.25;;;3.10;;
61640;SDS011;62201;49.966;8.342;2024-01-06T11:35:14;7.30;;;3.08;;
61640;SDS011;62201;49.966;8.342;2024-01-06T11:40:51;8.27;;;3.38;;
61640;SDS011;62201;49.966;8.342;2024-01-06T11:43:08;7.60;;;2.92;;
61640;SDS011;62201;49.966;8.342;2024-01-06T11:45:36;4.85;;;3.30;;
61640;SDS011;62201;49.966;8.342;2024-01-06T11:48:09;4.45;;;2.30;;
61640;SDS011;62201;49.966;8.342;2024-01-06T11:50:37;4.40;;;2.30;;
61640;SDS011;62201;49.966;8.342;2024-01-06T11:53:04;5.93;;;2.58;;
61640;SDS011;62201;49.966;8.342;2024-01-06T11:55:31;5.85;;;2.47;;
61640;SDS011;62201;49.966;8.342;2024-01-06T11:58:00;4.85;;;2.63;;
61640;SDS011;62201;49.966;8.342;2024-01-06T12:00:30;4.35;;;2.20;;
61640;SDS011;62201;49.966;8.342;2024-01-06T12:02:57;6.22;;;2.60;;
61640;SDS011;62201;49.966;8.342;2024-01-06T12:05:23;4.43;;;2.33;;
61640;SDS011;62201;49.966;8.342;2024-01-06T12:07:53;5.25;;;2.83;;
61640;SDS011;62201;49.966;8.342;2024-01-06T12:10:23;6.07;;;2.70;;
61640;SDS011;62201;49.966;8.342;2024-01-06T12:15:25;6.30;;;2.83;;
61640;SDS011;62201;49.966;8.342;2024-01-06T12:17:51;6.80;;;2.95;;
61640;SDS011;62201;49.966;8.342;2024-01-06T12:20:17;6.60;;;2.80;;
61640;SDS011;62201;49.966;8.342;2024-01-06T12:22:42;8.73;;;2.85;;
61640;SDS011;62201;49.966;8.342;2024-01-06T12:25:09;4.93;;;2.90;;
61640;SDS011;62201;49.966;8.342;2024-01-06T12:27:34;16.55;;;9.07;;
61640;SDS011;62201;49.966;8.342;2024-01-06T12:30:00;8.52;;;3.80;;
61640;SDS011;62201;49.966;8.342;2024-01-06T12:32:26;5.13;;;3.00;;
61640;SDS011;62201;49.966;8.342;2024-01-06T12:34:51;13.02;;;7.63;;
61640;SDS011;62201;49.966;8.342;2024-01-06T12:37:17;27.50;;;15.43;;
61640;SDS011;62201;49.966;8.342;2024-01-06T12:39:42;9.40;;;5.43;;
61640;SDS011;62201;49.966;8.342;2024-01-06T12:42:10;5.15;;;3.25;;
61640;SDS011;62201;49.966;8.342;2024-01-06T12:44:36;7.55;;;3.50;;
61640;SDS011;62201;49.966;8.342;2024-01-06T12:47:03;6.82;;;3.50;;
61640;SDS011;62201;49.966;8.342;2024-01-06T12:49:29;7.65;;;3.60;;
61640;SDS011;62201;49.966;8.342;2024-01-06T12:51:55;9.15;;;3.78;;
61640;SDS011;62201;49.966;8.342;2024-01-06T12:54:20;10.35;;;3.75;;
61640;SDS011;62201;49.966;8.342;2024-01-06T12:56:45;4.85;;;3.90;;
61640;SDS011;62201;49.966;8.342;2024-01-06T12:59:11;7.07;;;4.20;;
61640;SDS011;62201;49.966;8.342;2024-01-06T13:01:36;10.18;;;4.40;;
61640;SDS011;62201;49.966;8.342;2024-01-06T13:04:02;10.77;;;4.27;;
61640;SDS011;62201;49.966;8.342;2024-01-06T13:06:27;9.10;;;4.43;;
61640;SDS011;62201;49.966;8.342;2024-01-06T13:08:53;8.88;;;4.57;;
61640;SDS011;62201;49.966;8.342;2024-01-06T13:11:19;9.20;;;4.10;;
61640;SDS011;62201;49.966;8.342;2024-01-06T13:13:45;7.23;;;4.00;;
61640;SDS011;62201;49.966;8.342;2024-01-06T13:16:10;5.60;;;3.93;;
61640;SDS011;62201;49.966;8.342;2024-01-06T13:18:36;6.50;;;4.30;;
61640;SDS011;62201;49.966;8.342;2024-01-06T13:21:01;10.20;;;4.30;;
61640;SDS011;62201;49.966;8.342;2024-01-06T13:23:27;7.10;;;4.23;;
61640;SDS011;62201;49.966;8.342;2024-01-06T13:25:52;6.97;;;3.90;;
61640;SDS011;62201;49.966;8.342;2024-01-06T13:28:17;7.53;;;4.10;;
61640;SDS011;62201;49.966;8.342;2024-01-06T13:30:43;10.07;;;5.90;;
61640;SDS011;62201;49.966;8.342;2024-01-06T13:33:08;10.70;;;4.63;;
61640;SDS011;62201;49.966;8.342;2024-01-06T13:35:35;8.53;;;3.97;;
61640;SDS011;62201;49.966;8.342;2024-01-06T13:38:01;4.90;;;2.90;;
61640;SDS011;62201;49.966;8.342;2024-01-06T13:40:29;9.20;;;5.70;;
61640;SDS011;62201;49.966;8.342;2024-01-06T13:42:55;17.80;;;12.90;;
61640;SDS011;62201;49.966;8.342;2024-01-06T13:45:20;8.03;;;4.33;;
61640;SDS011;62201;49.966;8.342;2024-01-06T13:47:46;5.80;;;3.60;;
61640;SDS011;62201;49.966;8.342;2024-01-06T13:50:11;5.87;;;3.80;;
61640;SDS011;62201;49.966;8.342;2024-01-06T13:52:38;7.47;;;4.23;;
61640;SDS011;62201;49.966;8.342;2024-01-06T13:55:03;12.10;;;5.67;;
61640;SDS011;62201;49.966;8.342;2024-01-06T13:57:29;8.83;;;5.30;;
61640;SDS011;62201;49.966;8.342;2024-01-06T13:59:55;14.73;;;9.20;;
61640;SDS011;62201;49.966;8.342;2024-01-06T14:02:22;29.50;;;17.00;;
61640;SDS011;62201;49.966;8.342;2024-01-06T14:04:47;12.37;;;7.83;;
61640;SDS011;62201;49.966;8.342;2024-01-06T14:07:13;19.17;;;12.37;;
61640;SDS011;62201;49.966;8.342;2024-01-06T14:09:38;23.80;;;14.80;;
61640;SDS011;62201;49.966;8.342;2024-01-06T14:12:04;20.53;;;12.30;;
61640;SDS011;62201;49.966;8.342;2024-01-06T14:14:31;11.90;;;7.70;;
61640;SDS011;62201;49.966;8.342;2024-01-06T14:16:57;21.77;;;13.60;;
61640;SDS011;62201;49.966;8.342;2024-01-06T14:19:23;25.67;;;14.33;;
61640;SDS011;62201;49.966;8.342;2024-01-06T14:21:49;19.87;;;11.57;;
61640;SDS011;62201;49.966;8.342;2024-01-06T14:24:15;30.30;;;18.30;;
61640;SDS011;62201;49.966;8.342;2024-01-06T14:26:43;16.53;;;10.80;;
61640;SDS011;62201;49.966;8.342;2024-01-06T14:29:09;8.63;;;5.77;;
61640;SDS011;62201;49.966;8.342;2024-01-06T14:31:34;10.30;;;7.17;;
61640;SDS011;62201;49.966;8.342;2024-01-06T14:34:00;11.27;;;7.87;;
61640;SDS011;62201;49.966;8.342;2024-01-06T14:36:25;11.20;;;6.83;;
61640;SDS011;62201;49.966;8.342;2024-01-06T14:38:50;18.80;;;11.90;;
61640;SDS011;62201;49.966;8.342;2024-01-06T14:41:17;22.37;;;12.47;;
61640;SDS011;62201;49.966;8.342;2024-01-06T14:43:42;29.67;;;18.27;;
61640;SDS011;62201;49.966;8.342;2024-01-06T14:46:08;30.27;;;16.83;;
61640;SDS011;62201;49.966;8.342;2024-01-06T14:48:33;9.97;;;7.17;;
61640;SDS011;62201;49.966;8.342;2024-01-06T14:50:59;16.23;;;9.87;;